Time;durP1;ratioP1;P1;durP2;ratioP2;P2;SDS_P1;SDS_P2;PMS_P1;PMS_P2;Temp;Humidity;BMP_temperature;BMP_pressure;BME280_temperature;BME280_humidity;BME280_pressure;Samples;Min_cycle;Max_cycle;Signal;HPM_P1;HPM_P2
2022/11/05 00:10:34;;;;;;;5.90;3.67;;;;;;;7.46;100.00;97933.44;4468478;32;20073;-76
2022/11/05 00:18:32;;;;;;;4.68;2.87;;;;;;;7.34;100.00;97918.91;4468499;32;20107;-77
2022/11/05 00:21:00;;;;;;;4.45;2.92;;;;;;;7.26;100.00;97914.41;4468326;32;20084;-78
2022/11/05 00:26:13;;;;;;;3.75;2.33;;;;;;;7.05;100.00;97909.31;4468398;32;20104;-80
2022/11/05 00:28:42;;;;;;;5.18;3.12;;;;;;;7.00;100.00;97901.09;4468229;32;20108;-79
2022/11/05 00:31:12;;;;;;;5.07;3.10;;;;;;;6.99;100.00;97915.06;4468225;32;20142;-81
2022/11/05 00:33:41;;;;;;;4.03;2.83;;;;;;;6.92;100.00;97914.81;4468920;32;20139;-82
2022/11/05 00:36:09;;;;;;;5.65;3.10;;;;;;;6.91;100.00;97918.34;4470123;32;20114;-84
2022/11/05 00:38:36;;;;;;;4.40;2.70;;;;;;;6.91;100.00;97937.38;4470441;32;20104;-84
2022/11/05 00:41:04;;;;;;;6.05;2.92;;;;;;;6.90;100.00;97933.16;4470307;32;20218;-84
2022/11/05 00:46:17;;;;;;;8.38;3.67;;;;;;;6.85;100.00;97929.31;4470325;32;20156;-85
2022/11/05 00:51:29;;;;;;;7.07;3.45;;;;;;;6.77;100.00;97929.97;4470296;32;20085;-84
2022/11/05 00:53:56;;;;;;;11.12;2.85;;;;;;;6.78;100.00;97922.97;4470212;32;20116;-84
2022/11/05 00:56:23;;;;;;;6.10;3.67;;;;;;;6.75;100.00;97918.84;4470507;32;20156;-84
2022/11/05 00:58:50;;;;;;;5.87;3.00;;;;;;;6.70;100.00;97924.47;4470151;32;20167;-85
2022/11/05 01:01:17;;;;;;;5.57;3.37;;;;;;;6.76;100.00;97925.72;4470269;32;20135;-84
2022/11/05 01:03:45;;;;;;;6.15;3.45;;;;;;;6.78;100.00;97918.59;4476015;32;20160;-84
2022/11/05 01:06:18;;;;;;;6.37;2.90;;;;;;;6.73;100.00;97936.41;4486194;32;20462;-82
2022/11/05 01:08:45;;;;;;;5.20;2.65;;;;;;;6.70;100.00;97934.06;4474845;31;20100;-82
2022/11/05 01:11:33;;;;;;;5.55;3.47;;;;;;;6.74;100.00;97933.66;4470120;32;20164;-81
2022/11/05 01:14:02;;;;;;;5.65;3.53;;;;;;;6.67;100.00;97935.16;4470005;32;20131;-81
2022/11/05 01:16:30;;;;;;;6.28;3.70;;;;;;;6.71;100.00;97938.31;4470151;32;20136;-81
2022/11/05 01:18:57;;;;;;;6.75;3.47;;;;;;;6.74;100.00;97949.28;4470207;32;20152;-81
2022/11/05 01:21:25;;;;;;;6.55;3.53;;;;;;;6.67;100.00;97939.53;4468762;32;20523;-82
2022/11/05 01:23:52;;;;;;;6.78;3.78;;;;;;;6.63;100.00;97945.94;4470111;32;20105;-82
2022/11/05 01:26:19;;;;;;;7.30;3.28;;;;;;;6.60;100.00;97941.00;4469997;32;20097;-82
2022/11/05 01:28:54;;;;;;;7.65;3.50;;;;;;;6.64;100.00;97935.41;4470181;32;20096;-82
2022/11/05 01:31:22;;;;;;;6.72;2.78;;;;;;;6.59;100.00;97935.00;4470403;32;20142;-82
2022/11/05 01:33:50;;;;;;;30.12;4.57;;;;;;;6.51;100.00;97921.81;4469867;32;20096;-83
2022/11/05 01:36:17;;;;;;;9.80;3.97;;;;;;;6.55;100.00;97921.41;4469838;32;20533;-82
2022/11/05 01:38:44;;;;;;;8.60;3.50;;;;;;;6.61;100.00;97927.06;4469938;32;20092;-83
2022/11/05 01:41:11;;;;;;;7.32;4.20;;;;;;;6.58;100.00;97933.34;4469931;32;20158;-83
2022/11/05 01:43:56;;;;;;;8.30;4.62;;;;;;;6.62;100.00;97933.91;4470370;32;20119;-83
2022/11/05 01:46:26;;;;;;;10.35;4.00;;;;;;;6.61;100.00;97947.88;4469393;32;20105;-83
2022/11/05 01:48:56;;;;;;;7.25;4.30;;;;;;;6.63;100.00;97953.75;4469978;32;20088;-83
2022/11/05 01:51:29;;;;;;;9.25;4.68;;;;;;;6.60;100.00;97943.63;4468746;32;20100;-83
2022/11/05 01:54:03;;;;;;;10.70;4.32;;;;;;;6.52;100.00;97945.09;4470012;32;20660;-83
2022/11/05 01:56:43;;;;;;;10.98;5.07;;;;;;;6.60;100.00;97946.22;4468707;32;20139;-83
2022/11/05 01:59:36;;;;;;;8.35;4.05;;;;;;;6.51;100.00;97960.84;4469978;32;20104;-83
2022/11/05 02:02:05;;;;;;;7.55;4.80;;;;;;;6.52;100.00;97942.50;4469892;32;20084;-82
2022/11/05 02:04:39;;;;;;;9.05;4.90;;;;;;;6.52;100.00;97950.28;4457812;32;20159;-82
2022/11/05 02:07:08;;;;;;;8.07;5.10;;;;;;;6.53;100.00;97931.12;4453270;32;20407;-81
2022/11/05 02:09:52;;;;;;;8.98;5.03;;;;;;;6.49;100.00;97934.94;4468535;32;20092;-80
2022/11/05 02:12:19;;;;;;;;;;;;;;;6.47;100.00;97931.66;4469042;32;20108;-81
2022/11/05 02:14:46;;;;;;;8.02;4.90;;;;;;;6.41;100.00;97924.41;4469665;32;20035;-80
2022/11/05 02:17:16;;;;;;;7.60;4.47;;;;;;;6.47;100.00;97931.66;4469710;32;20549;-80
2022/11/05 02:20:10;;;;;;;9.20;5.37;;;;;;;6.49;100.00;97931.53;4469797;32;20105;-81
2022/11/05 02:23:05;;;;;;;7.03;4.22;;;;;;;6.43;100.00;97945.06;4469676;32;20526;-80
2022/11/05 02:26:04;;;;;;;10.75;5.95;;;;;;;6.44;100.00;97941.53;4469722;32;20089;-81
2022/11/05 02:29:12;;;;;;;9.20;4.95;;;;;;;6.37;100.00;97949.00;4420687;32;20125;-81
2022/11/05 02:32:04;;;;;;;8.45;4.43;;;;;;;6.40;100.00;97956.56;4360407;32;20099;-80
2022/11/05 02:34:51;;;;;;;7.68;4.68;;;;;;;6.42;100.00;97953.81;4360270;32;20571;-80
2022/11/05 02:37:30;;;;;;;10.43;4.53;;;;;;;6.36;100.00;97944.78;4360128;32;20133;-80
2022/11/05 02:40:30;;;;;;;10.23;5.50;;;;;;;6.36;100.00;97957.78;4360348;32;20118;-80
2022/11/05 02:43:02;;;;;;;10.32;5.18;;;;;;;6.33;100.00;97940.66;4330387;33;20174;-79
2022/11/05 02:45:38;;;;;;;11.75;5.50;;;;;;;6.35;100.00;97950.94;4330810;33;20123;-79
2022/11/05 02:48:11;;;;;;;11.25;6.00;;;;;;;6.38;100.00;97946.28;4330932;33;20155;-79
2022/11/05 02:50:45;;;;;;;13.40;5.70;;;;;;;6.37;100.00;97951.63;4330967;33;20143;-80
2022/11/05 02:53:33;;;;;;;;;;;;;;;6.34;100.00;97934.50;4330978;33;20254;-79
2022/11/05 02:56:05;;;;;;;10.35;4.15;;;;;;;6.28;100.00;97948.00;4330840;33;19999;-79
2022/11/05 02:58:34;;;;;;;11.10;5.53;;;;;;;6.36;100.00;97950.00;4329790;33;20107;-80
2022/11/05 03:01:05;;;;;;;12.10;5.93;;;;;;;6.27;100.00;97953.34;4330642;33;20324;-79
2022/11/05 03:03:38;;;;;;;11.55;5.90;;;;;;;6.27;100.00;97948.13;4330629;33;20681;-79
2022/11/05 03:06:46;;;;;;;8.13;4.75;;;;;;;6.29;100.00;97954.06;4364487;32;20151;-79
2022/11/05 03:09:29;;;;;;;11.70;4.87;;;;;;;6.34;100.00;97949.28;4415498;32;20543;-80
2022/11/05 03:12:00;;;;;;;9.85;5.57;;;;;;;6.29;100.00;97941.88;4435883;32;20176;-79
2022/11/05 03:14:39;;;;;;;9.73;5.78;;;;;;;6.24;100.00;97935.41;4435849;32;20140;-80
2022/11/05 03:17:15;;;;;;;9.55;5.70;;;;;;;6.21;100.00;97942.53;4435909;32;20239;-80
2022/11/05 03:19:48;;;;;;;11.50;6.07;;;;;;;6.21;100.00;97947.72;4447449;32;20507;-80
2022/11/05 03:22:54;;;;;;;11.20;5.82;;;;;;;6.20;100.00;97946.06;4468082;32;20479;-80
2022/11/05 03:25:23;;;;;;;11.45;6.22;;;;;;;6.25;100.00;97960.47;4420185;32;20211;-80
2022/11/05 03:27:55;;;;;;;12.88;6.00;;;;;;;6.26;100.00;97964.72;4407698;32;20179;-80
2022/11/05 03:30:24;;;;;;;12.23;5.87;;;;;;;6.29;100.00;97954.06;4420301;32;20148;-80
2022/11/05 03:32:56;;;;;;;10.65;6.30;;;;;;;6.27;100.00;97974.16;4420276;32;20185;-79
2022/11/05 03:35:26;;;;;;;9.85;5.72;;;;;;;6.26;100.00;97985.53;4407251;32;20720;-78
2022/11/05 03:37:58;;;;;;;7.28;4.43;;;;;;;6.25;100.00;97969.09;4407728;32;20124;-78
2022/11/05 03:40:25;;;;;;;15.70;5.68;;;;;;;6.24;100.00;97966.59;4420242;32;20124;-78
2022/11/05 03:42:54;;;;;;;9.15;5.18;;;;;;;6.24;100.00;97970.06;4407599;32;20157;-78
2022/11/05 03:45:25;;;;;;;9.20;5.28;;;;;;;6.24;100.00;97977.00;4407466;32;20094;-79
2022/11/05 03:47:57;;;;;;;10.55;5.10;;;;;;;6.23;100.00;97986.59;4407969;32;20659;-78
2022/11/05 03:50:54;;;;;;;12.73;6.22;;;;;;;6.28;100.00;97988.81;4407499;32;20228;-79
2022/11/05 03:53:27;;;;;;;7.62;4.03;;;;;;;6.28;100.00;97988.81;4389616;32;20209;-79
2022/11/05 03:56:00;;;;;;;8.07;4.67;;;;;;;6.28;100.00;97994.00;4377506;32;20106;-79
2022/11/05 03:58:28;;;;;;;6.45;4.32;;;;;;;6.22;100.00;97988.37;4377214;32;20098;-79
2022/11/05 04:00:55;;;;;;;10.43;5.03;;;;;;;6.18;100.00;97994.78;4398019;32;20131;-80
2022/11/05 04:03:22;;;;;;;7.10;4.35;;;;;;;6.21;100.00;97999.75;4422514;32;20117;-79
2022/11/05 04:13:22;;;;;;;8.25;4.70;;;;;;;6.24;100.00;98003.87;4434919;32;20651;-80
2022/11/05 04:14:09;;;;;;;7.22;4.70;;;;;;;6.23;100.00;97984.00;4410809;32;20176;-80
2022/11/05 04:25:17;;;;;;;8.45;3.80;;;;;;;6.24;100.00;97985.66;4406351;32;20674;-80
2022/11/05 04:27:45;;;;;;;7.90;4.55;;;;;;;6.25;100.00;97994.28;4406314;32;20201;-80
2022/11/05 04:30:20;;;;;;;9.05;5.47;;;;;;;6.26;100.00;97993.34;4415943;32;20574;-80
2022/11/05 04:32:58;;;;;;;8.23;4.95;;;;;;;6.27;100.00;98002.75;4421516;32;20178;-80
2022/11/05 04:35:26;;;;;;;8.50;5.18;;;;;;;6.30;100.00;97986.91;4421292;32;20545;-80
2022/11/05 04:37:54;;;;;;;6.43;4.30;;;;;;;6.28;100.00;97979.22;4421497;32;20687;-80
2022/11/05 04:40:21;;;;;;;8.13;4.40;;;;;;;6.22;100.00;97958.94;4421320;32;20089;-80
2022/11/05 04:42:48;;;;;;;9.48;4.30;;;;;;;6.24;100.00;97966.59;4421366;32;20193;-80
2022/11/05 04:45:15;;;;;;;7.72;4.62;;;;;;;6.27;100.00;97976.75;4421598;32;20137;-80
2022/11/05 04:47:42;;;;;;;6.43;4.00;;;;;;;6.20;100.00;97981.66;4421328;32;20601;-80
2022/11/05 04:50:11;;;;;;;7.85;4.62;;;;;;;6.25;100.00;97973.47;4421400;32;20105;-80
2022/11/05 04:52:38;;;;;;;10.63;4.65;;;;;;;6.28;100.00;97971.41;4428676;32;20094;-80
2022/11/05 04:55:06;;;;;;;7.68;4.70;;;;;;;6.26;100.00;97986.34;4454614;32;20093;-80
2022/11/05 04:57:33;;;;;;;7.15;4.55;;;;;;;6.24;100.00;97995.22;4454585;32;20109;-80
2022/11/05 05:00:00;;;;;;;9.00;4.75;;;;;;;6.26;100.00;97988.13;4454696;32;20164;-80
2022/11/05 05:02:28;;;;;;;6.55;4.03;;;;;;;6.33;100.00;97977.06;4454435;32;20124;-80
2022/11/05 05:04:55;;;;;;;7.55;4.20;;;;;;;6.23;100.00;97976.19;4467546;32;20115;-80
2022/11/05 05:07:22;;;;;;;6.55;3.78;;;;;;;6.22;100.00;97975.38;4468049;32;20174;-80
2022/11/05 05:09:49;;;;;;;6.28;3.97;;;;;;;6.26;100.00;97975.13;4454464;32;20092;-80
2022/11/05 05:12:16;;;;;;;6.03;3.62;;;;;;;6.32;100.00;97972.00;4454308;32;20168;-80
2022/11/05 05:14:46;;;;;;;6.47;4.03;;;;;;;6.26;100.00;97973.34;4454513;32;20109;-80
2022/11/05 05:17:14;;;;;;;6.43;3.65;;;;;;;6.29;100.00;97980.87;4454689;32;20509;-80
2022/11/05 05:22:28;;;;;;;6.35;3.90;;;;;;;6.28;100.00;97994.00;4454532;32;20594;-79
2022/11/05 05:24:58;;;;;;;6.45;3.80;;;;;;;6.25;100.00;97994.28;4454605;32;20107;-80
2022/11/05 05:27:28;;;;;;;6.03;3.58;;;;;;;6.27;100.00;97997.56;4454742;32;20137;-79
2022/11/05 05:29:56;;;;;;;4.37;3.15;;;;;;;6.30;100.00;98002.50;4454700;32;20500;-79
2022/11/05 05:32:23;;;;;;;6.20;3.30;;;;;;;6.29;100.00;97991.28;4454527;32;20093;-79
2022/11/05 05:34:51;;;;;;;5.50;3.28;;;;;;;6.29;100.00;97993.06;4454419;32;20587;-80
2022/11/05 05:37:18;;;;;;;5.25;3.45;;;;;;;6.35;100.00;97977.75;4454570;32;20085;-80
2022/11/05 05:39:46;;;;;;;5.22;2.85;;;;;;;6.34;100.00;97977.88;4454592;32;20159;-80
2022/11/05 05:42:14;;;;;;;6.28;3.37;;;;;;;6.37;100.00;97981.06;4454104;32;20092;-80
2022/11/05 05:44:41;;;;;;;4.30;3.03;;;;;;;6.33;100.00;97981.47;4454433;32;20659;-80
2022/11/05 05:47:08;;;;;;;3.80;2.50;;;;;;;6.33;100.00;97984.06;4454340;32;20112;-80
2022/11/05 05:49:35;;;;;;;3.97;2.65;;;;;;;6.35;100.00;97992.56;4454635;32;20151;-79
2022/11/05 05:52:03;;;;;;;5.40;3.20;;;;;;;6.40;100.00;98005.97;4454372;32;20505;-79
2022/11/05 05:54:30;;;;;;;4.53;2.95;;;;;;;6.44;100.00;98009.16;4454530;32;20743;-80
2022/11/05 05:57:02;;;;;;;4.20;2.87;;;;;;;6.39;100.00;98015.56;4454430;32;20115;-80
2022/11/05 05:59:29;;;;;;;6.72;3.37;;;;;;;6.37;100.00;98029.66;4454458;32;20096;-79
2022/11/05 06:01:57;;;;;;;5.60;3.37;;;;;;;6.36;100.00;98035.84;4454576;32;20152;-79
2022/11/05 06:04:24;;;;;;;5.00;3.10;;;;;;;6.40;100.00;98039.81;4473595;32;20379;-79
2022/11/05 06:06:51;;;;;;;6.25;3.67;;;;;;;6.42;100.00;98048.31;4485461;31;20084;-80
2022/11/05 06:09:18;;;;;;;5.93;3.30;;;;;;;6.44;100.00;98056.81;4470860;31;20427;-80
2022/11/05 06:11:45;;;;;;;3.72;2.85;;;;;;;6.47;100.00;98059.16;4469893;32;20120;-80
2022/11/05 06:14:12;;;;;;;4.47;3.35;;;;;;;6.45;100.00;98060.22;4469747;32;20145;-80
2022/11/05 06:16:40;;;;;;;4.93;3.28;;;;;;;6.46;100.00;98075.72;4469715;32;20085;-80
2022/11/05 06:19:07;;;;;;;6.60;3.15;;;;;;;6.48;100.00;98076.44;4469769;32;20159;-80
2022/11/05 06:21:34;;;;;;;5.60;3.75;;;;;;;6.47;100.00;98082.56;4470035;32;20109;-80
2022/11/05 06:24:02;;;;;;;5.22;3.47;;;;;;;6.55;100.00;98090.56;4469755;32;20101;-80
2022/11/05 06:26:29;;;;;;;3.90;3.00;;;;;;;6.54;100.00;98088.09;4464793;32;155964;-80
2022/11/05 06:28:56;;;;;;;7.12;3.90;;;;;;;6.52;100.00;98090.81;4469688;32;20196;-80
2022/11/05 06:31:24;;;;;;;4.78;3.05;;;;;;;6.63;100.00;98091.69;4469330;32;20433;-79
2022/11/05 06:33:51;;;;;;;6.22;3.70;;;;;;;6.62;100.00;98100.47;4469662;32;20116;-80
2022/11/05 06:36:18;;;;;;;5.12;3.08;;;;;;;6.63;100.00;98092.53;4469258;32;20156;-79
2022/11/05 06:38:45;;;;;;;4.60;3.08;;;;;;;6.63;100.00;98099.50;4469527;32;20092;-79
2022/11/05 06:41:13;;;;;;;4.93;3.15;;;;;;;6.61;100.00;98111.84;4469465;32;20135;-79
2022/11/05 06:43:40;;;;;;;4.75;2.95;;;;;;;6.64;100.00;98106.38;4469538;32;20145;-79
2022/11/05 06:46:08;;;;;;;4.53;3.10;;;;;;;6.70;100.00;98124.06;4469621;32;20096;-79
2022/11/05 06:48:36;;;;;;;4.15;3.00;;;;;;;6.73;100.00;98116.00;4469553;32;20446;-80
2022/11/05 06:51:03;;;;;;;5.00;3.53;;;;;;;6.75;100.00;98116.69;4469708;32;20119;-79
2022/11/05 06:53:30;;;;;;;6.22;3.22;;;;;;;6.79;100.00;98128.50;4469438;32;20118;-80
2022/11/05 06:56:01;;;;;;;4.62;3.30;;;;;;;6.84;100.00;98128.13;4469429;32;20415;-80
2022/11/05 06:58:29;;;;;;;5.00;3.22;;;;;;;6.82;100.00;98123.03;4469440;32;20133;-80
2022/11/05 07:01:06;;;;;;;4.62;2.92;;;;;;;6.85;100.00;98132.38;4469551;32;20517;-80
2022/11/05 07:03:35;;;;;;;4.68;2.72;;;;;;;6.93;100.00;98133.37;4473796;32;20112;-80
2022/11/05 07:06:03;;;;;;;3.20;2.60;;;;;;;6.95;100.00;98146.28;4484987;31;20092;-80
2022/11/05 07:08:32;;;;;;;6.47;2.70;;;;;;;7.02;100.00;98143.97;4475627;31;20119;-80
2022/11/05 07:11:00;;;;;;;3.58;2.70;;;;;;;7.04;100.00;98142.88;4469307;32;20156;-80
2022/11/05 07:13:27;;;;;;;6.47;2.72;;;;;;;7.15;100.00;98152.41;4469462;32;20148;-80
2022/11/05 07:15:54;;;;;;;4.28;2.62;;;;;;;7.09;100.00;98150.31;4469359;32;20363;-80
2022/11/05 07:18:21;;;;;;;2.92;2.28;;;;;;;7.15;100.00;98155.00;4469255;32;20108;-80
2022/11/05 07:20:48;;;;;;;3.65;2.33;;;;;;;7.13;100.00;98162.13;4469343;32;20097;-80
2022/11/05 07:23:16;;;;;;;5.80;2.60;;;;;;;7.24;100.00;98154.22;4469269;32;20148;-80
2022/11/05 07:25:43;;;;;;;3.90;2.33;;;;;;;7.19;100.00;98152.94;4467817;32;20175;-80
2022/11/05 07:28:13;;;;;;;3.10;2.20;;;;;;;7.21;100.00;98164.91;4469202;32;20084;-80
2022/11/05 07:30:40;;;;;;;3.10;2.15;;;;;;;7.26;100.00;98154.06;4469208;32;20105;-81
2022/11/05 07:33:08;;;;;;;4.47;2.90;;;;;;;7.31;100.00;98156.28;4469300;32;20225;-80
2022/11/05 07:35:35;;;;;;;2.75;2.00;;;;;;;7.39;100.00;98159.06;4468896;32;20107;-79
2022/11/05 07:38:02;;;;;;;4.47;2.60;;;;;;;7.48;100.00;98145.25;4468893;32;20348;-80
2022/11/05 07:40:30;;;;;;;4.97;2.62;;;;;;;7.47;100.00;98157.44;4468960;32;20105;-80
2022/11/05 07:42:59;;;;;;;3.65;2.53;;;;;;;7.44;100.00;98147.28;4468023;32;20451;-80
2022/11/05 07:45:27;;;;;;;3.92;1.95;;;;;;;7.41;100.00;98144.13;4469047;32;20127;-80
2022/11/05 07:47:57;;;;;;;3.97;2.55;;;;;;;7.51;100.00;98141.53;4469187;32;20202;-80
2022/11/05 07:50:26;;;;;;;3.97;2.37;;;;;;;7.51;100.00;98144.97;4468940;32;20144;-80
2022/11/05 07:53:02;;;;;;;3.37;2.45;;;;;;;7.50;100.00;98150.31;4468772;32;20592;-80
2022/11/05 07:55:29;;;;;;;4.25;3.08;;;;;;;7.61;100.00;98145.81;4468957;32;20186;-80
2022/11/05 07:57:57;;;;;;;3.30;2.65;;;;;;;7.60;100.00;98148.53;4468719;32;20168;-80
2022/11/05 08:00:25;;;;;;;5.75;3.65;;;;;;;7.67;100.00;98139.25;4468745;32;20101;-81
2022/11/05 08:03:01;;;;;;;11.12;8.23;;;;;;;7.72;100.00;98139.69;4468683;32;20256;-81
2022/11/05 08:05:36;;;;;;;13.55;9.85;;;;;;;7.81;100.00;98138.88;4453023;32;20101;-81
2022/11/05 08:08:05;;;;;;;5.53;4.05;;;;;;;7.94;100.00;98130.78;4459285;32;20152;-81
2022/11/05 08:10:33;;;;;;;6.12;3.80;;;;;;;7.92;100.00;98132.69;4468544;32;20096;-81
2022/11/05 08:13:00;;;;;;;5.97;3.22;;;;;;;8.01;100.00;98120.63;4468451;32;20118;-81
2022/11/05 08:15:28;;;;;;;5.00;3.45;;;;;;;7.96;100.00;98128.03;4468543;32;20172;-81
2022/11/05 08:18:04;;;;;;;4.05;2.85;;;;;;;7.99;100.00;98131.22;4468480;32;20470;-82
2022/11/05 08:20:32;;;;;;;4.18;2.95;;;;;;;8.00;100.00;98118.97;4468635;32;20101;-81
2022/11/05 08:22:59;;;;;;;3.00;2.55;;;;;;;8.08;100.00;98113.88;4468379;32;20161;-81
2022/11/05 08:25:26;;;;;;;6.22;2.78;;;;;;;8.14;100.00;98109.91;4468449;32;20093;-81
2022/11/05 08:27:55;;;;;;;5.53;3.25;;;;;;;8.12;100.00;98115.25;4468314;32;20124;-81
2022/11/05 08:30:22;;;;;;;3.87;2.70;;;;;;;8.12;100.00;98117.06;4468232;32;20160;-81
2022/11/05 08:32:50;;;;;;;5.85;3.03;;;;;;;8.10;100.00;98129.41;4468313;32;20105;-81
2022/11/05 08:35:17;;;;;;;5.68;3.50;;;;;;;8.20;100.00;98127.63;4466581;32;20430;-81
2022/11/05 08:37:44;;;;;;;4.30;3.30;;;;;;;8.26;100.00;98139.31;4468153;32;20139;-81
2022/11/05 08:40:11;;;;;;;4.00;2.85;;;;;;;8.27;100.00;98136.56;4467960;32;20081;-82
2022/11/05 08:42:38;;;;;;;4.93;2.85;;;;;;;8.23;100.00;98140.38;4468127;32;20101;-81
2022/11/05 08:45:06;;;;;;;5.40;3.15;;;;;;;8.18;100.00;98142.59;4468031;32;20122;-82
2022/11/05 08:47:33;;;;;;;6.55;2.90;;;;;;;8.20;100.00;98147.69;4468411;32;20088;-81
2022/11/05 08:50:00;;;;;;;7.95;2.90;;;;;;;8.31;100.00;98147.53;4468247;32;20429;-82
2022/11/05 08:52:27;;;;;;;3.33;2.42;;;;;;;8.25;100.00;98154.16;4468094;32;20085;-82
2022/11/05 08:54:54;;;;;;;6.30;2.62;;;;;;;8.38;100.00;98158.25;4469080;32;20088;-83
2022/11/05 08:57:22;;;;;;;4.93;2.70;;;;;;;8.37;100.00;98154.81;4470077;32;20093;-83
2022/11/05 08:59:49;;;;;;;5.45;2.60;;;;;;;8.38;100.00;98168.69;4470216;32;20148;-83
2022/11/05 09:02:16;;;;;;;7.62;3.00;;;;;;;8.39;100.00;98163.34;4470140;32;20525;-83
2022/11/05 09:04:43;;;;;;;4.97;3.20;;;;;;;8.45;100.00;98165.44;4481931;32;20105;-83
2022/11/05 09:07:10;;;;;;;5.70;3.30;;;;;;;8.59;100.00;98169.38;4484945;31;20784;-84
2022/11/05 09:09:37;;;;;;;4.37;2.95;;;;;;;8.69;100.00;98167.59;4470073;32;20503;-85
2022/11/05 09:12:05;;;;;;;4.20;3.08;;;;;;;8.52;100.00;98166.53;4470273;32;20115;-84
2022/11/05 09:14:38;;;;;;;4.50;3.30;;;;;;;8.64;100.00;98159.34;4470081;32;20153;-84
2022/11/05 09:17:15;;;;;;;6.97;3.33;;;;;;;8.75;100.00;98155.78;4470084;32;20142;-84
2022/11/05 09:19:42;;;;;;;5.03;3.65;;;;;;;8.66;100.00;98164.41;4470137;32;20148;-84
2022/11/05 09:22:11;;;;;;;4.93;3.20;;;;;;;8.69;100.00;98161.53;4470312;32;20092;-83
2022/11/05 09:24:39;;;;;;;4.82;3.75;;;;;;;8.72;100.00;98171.72;4470034;32;20164;-84
2022/11/05 09:27:09;;;;;;;4.55;3.00;;;;;;;8.74;100.00;98153.31;4470405;32;20126;-83
2022/11/05 09:29:36;;;;;;;4.20;3.20;;;;;;;8.74;100.00;98176.81;4470164;32;20818;-83
2022/11/05 09:32:04;;;;;;;4.22;2.85;;;;;;;8.81;100.00;98176.09;4470149;32;20122;-82
2022/11/05 09:34:31;;;;;;;5.35;3.05;;;;;;;8.83;100.00;98179.37;4470041;32;20518;-83
2022/11/05 09:36:58;;;;;;;5.28;3.47;;;;;;;9.00;100.00;98169.19;4469965;32;20498;-83
2022/11/05 09:39:25;;;;;;;4.50;3.37;;;;;;;9.05;100.00;98169.56;4469893;32;20528;-83
2022/11/05 09:41:55;;;;;;;5.05;3.37;;;;;;;8.98;100.00;98130.12;4470052;32;20114;-83
2022/11/05 09:44:41;;;;;;;4.80;3.30;;;;;;;9.03;100.00;98164.47;4468534;32;20152;-83
2022/11/05 09:47:15;;;;;;;5.10;3.15;;;;;;;9.04;100.00;98160.09;4469763;32;20088;-83
2022/11/05 09:49:51;;;;;;;6.43;3.35;;;;;;;9.12;100.00;98154.16;4468511;32;20431;-83
2022/11/05 09:52:26;;;;;;;5.90;3.67;;;;;;;9.12;100.00;98148.94;4470183;32;20096;-84
2022/11/05 09:54:54;;;;;;;5.32;3.28;;;;;;;9.01;100.00;98149.94;4468603;32;20165;-84
2022/11/05 09:57:42;;;;;;;5.00;3.25;;;;;;;9.10;100.00;98158.69;4469732;32;20534;-84
2022/11/05 10:00:15;;;;;;;6.45;3.90;;;;;;;8.99;100.00;98160.53;4468882;32;20203;-84
2022/11/05 10:02:55;;;;;;;6.95;3.72;;;;;;;9.04;100.00;98160.09;4469984;32;20175;-84
2022/11/05 10:05:23;;;;;;;5.53;3.87;;;;;;;9.16;100.00;98158.09;4452845;32;20418;-84
2022/11/05 10:08:06;;;;;;;5.60;3.42;;;;;;;9.34;100.00;98156.41;4454590;32;20178;-85
2022/11/05 10:11:02;;;;;;;7.47;3.58;;;;;;;9.36;100.00;98138.78;4452844;32;20101;-85
2022/11/05 10:13:43;;;;;;;8.77;3.62;;;;;;;9.19;100.00;98148.22;4452847;32;20093;-85
2022/11/05 10:16:33;;;;;;;7.12;3.70;;;;;;;9.33;100.00;98151.31;4465481;32;20139;-85
2022/11/05 10:19:08;;;;;;;5.30;3.50;;;;;;;9.36;100.00;98154.47;4453190;32;20089;-85
2022/11/05 10:21:36;;;;;;;6.12;4.30;;;;;;;9.41;100.00;98159.25;4453992;32;20090;-85
2022/11/05 10:24:24;;;;;;;8.57;4.82;;;;;;;9.40;100.00;98160.22;4454190;32;20659;-86
2022/11/05 10:26:52;;;;;;;4.97;3.60;;;;;;;9.51;100.00;98159.22;4454141;32;20147;-86
2022/11/05 10:29:29;;;;;;;7.15;4.20;;;;;;;9.64;100.00;98157.06;4454142;32;20503;-86
2022/11/05 10:31:58;;;;;;;5.60;3.72;;;;;;;9.64;100.00;98166.72;4465588;32;20129;-86
2022/11/05 10:34:29;;;;;;;5.78;4.32;;;;;;;9.64;100.00;98157.06;4452751;32;20268;-86
2022/11/05 10:36:57;;;;;;;6.78;4.40;;;;;;;9.70;100.00;98156.47;4465145;32;20106;-86
2022/11/05 10:39:26;;;;;;;5.78;3.95;;;;;;;9.83;100.00;98156.16;4453972;32;20085;-86
2022/11/05 10:42:12;;;;;;;6.90;3.92;;;;;;;9.64;100.00;98154.44;4465129;32;20160;-86
2022/11/05 10:45:07;;;;;;;6.50;4.25;;;;;;;9.76;100.00;98161.16;4454025;32;20089;-85
2022/11/05 10:47:41;;;;;;;;;;;;;;;9.74;100.00;98163.06;4454326;32;20454;-85
2022/11/05 10:50:16;;;;;;;6.22;3.75;;;;;;;9.75;100.00;98169.16;4452576;32;20008;-86
2022/11/05 10:52:53;;;;;;;5.32;3.83;;;;;;;9.82;100.00;98175.41;4465626;32;20421;-86
2022/11/05 10:55:26;;;;;;;7.22;3.85;;;;;;;10.02;100.00;98168.28;4452582;32;20513;-86
2022/11/05 10:57:53;;;;;;;4.37;3.47;;;;;;;10.36;100.00;98177.28;4453926;32;20213;-87
2022/11/05 11:00:23;;;;;;;5.28;3.67;;;;;;;10.46;100.00;98196.34;4453997;32;20116;-87
2022/11/05 11:02:58;;;;;;;5.30;3.83;;;;;;;10.45;100.00;98197.34;4453999;32;20104;-87
2022/11/05 11:05:29;;;;;;;6.85;4.50;;;;;;;10.15;100.00;98207.16;4452732;32;20161;-87
2022/11/05 11:08:08;;;;;;;5.18;3.87;;;;;;;10.05;100.00;98195.94;4459157;32;20129;-87
2022/11/05 11:11:02;;;;;;;6.82;3.78;;;;;;;10.13;100.00;98186.37;4469172;32;20073;-88
2022/11/05 11:13:51;;;;;;;8.23;3.83;;;;;;;9.97;100.00;98177.53;4466036;32;20161;-88
2022/11/05 11:16:20;;;;;;;7.32;4.70;;;;;;;9.92;100.00;98176.19;4469100;32;20113;-88
2022/11/05 11:18:52;;;;;;;5.97;4.03;;;;;;;9.95;100.00;98169.84;4468148;32;20528;-88
2022/11/05 11:21:25;;;;;;;5.72;3.90;;;;;;;9.83;100.00;98165.78;4469160;32;20096;-88
2022/11/05 11:24:02;;;;;;;8.23;4.03;;;;;;;9.88;100.00;98181.84;4469383;32;20374;-88
2022/11/05 11:26:38;;;;;;;6.55;4.22;;;;;;;9.82;100.00;98179.84;4467904;32;20096;-88
2022/11/05 11:29:06;;;;;;;5.75;4.12;;;;;;;10.05;100.00;98181.06;4469264;32;20111;-88
2022/11/05 11:31:37;;;;;;;7.30;4.53;;;;;;;9.88;100.00;98169.59;4468972;32;20208;-88
2022/11/05 11:34:35;;;;;;;5.53;4.25;;;;;;;9.93;100.00;98182.22;4469034;32;20093;-88
2022/11/05 11:37:09;;;;;;;7.85;4.90;;;;;;;9.92;100.00;98180.59;4468869;32;20582;-88
2022/11/05 11:39:47;;;;;;;6.20;4.30;;;;;;;10.11;100.00;98177.88;4467938;32;20089;-89
2022/11/05 11:42:43;;;;;;;7.80;5.10;;;;;;;10.21;100.00;98183.00;4468693;32;20198;-88
2022/11/05 11:45:35;;;;;;;7.93;5.25;;;;;;;10.10;100.00;98183.25;4467773;32;20529;-88
2022/11/05 11:48:06;;;;;;;7.20;4.55;;;;;;;10.29;100.00;98192.72;4468854;32;20183;-88
2022/11/05 11:50:45;;;;;;;6.53;4.12;;;;;;;10.19;100.00;98198.06;4468974;32;20101;-88
2022/11/05 11:53:18;;;;;;;6.78;4.60;;;;;;;10.27;100.00;98202.53;4468875;32;20119;-89
2022/11/05 11:56:18;;;;;;;6.43;4.20;;;;;;;10.49;100.00;98198.66;4468984;32;20181;-88
2022/11/05 11:58:52;;;;;;;7.30;4.28;;;;;;;10.41;100.00;98201.22;4466137;32;20513;-88
2022/11/05 12:01:41;;;;;;;6.93;4.28;;;;;;;10.42;100.00;98202.87;4468541;32;20088;-88
2022/11/05 12:04:36;;;;;;;6.32;3.85;;;;;;;10.62;100.00;98209.59;4476805;32;20084;-88
2022/11/05 12:07:26;;;;;;;5.87;3.87;;;;;;;10.56;100.00;98199.72;4484296;31;20088;-88
2022/11/05 12:10:16;;;;;;;5.95;3.45;;;;;;;10.75;100.00;98193.50;4453129;32;20081;-89
2022/11/05 12:12:51;;;;;;;5.97;3.95;;;;;;;10.58;100.00;98199.56;4452924;32;20097;-89
2022/11/05 12:15:48;;;;;;;5.72;4.07;;;;;;;10.65;100.00;98198.81;4453169;32;20089;-89
2022/11/05 12:18:36;;;;;;;6.03;3.65;;;;;;;10.67;100.00;98211.75;4404252;32;20132;-89
2022/11/05 12:21:03;;;;;;;4.18;3.10;;;;;;;10.53;100.00;98220.16;4404584;32;20640;-89
2022/11/05 12:24:04;;;;;;;5.37;3.62;;;;;;;10.56;100.00;98222.47;4404389;32;20134;-89
2022/11/05 12:26:52;;;;;;;4.35;3.40;;;;;;;10.58;100.00;98216.13;4404453;32;20221;-89
2022/11/05 12:29:49;;;;;;;5.12;3.65;;;;;;;10.51;100.00;98217.69;4404778;32;20169;-89
2022/11/05 12:32:58;;;;;;;4.15;3.12;;;;;;;10.55;100.00;98239.16;4406386;32;20121;-89
2022/11/05 12:35:40;;;;;;;4.37;3.08;;;;;;;10.53;100.00;98212.31;4406192;32;20121;-89
2022/11/05 12:38:42;;;;;;;5.90;2.83;;;;;;;10.58;100.00;98226.59;4406178;32;20090;-89